Flight Track Log - Related Links

Times and Time Zones

All times are in EDT time to prevent confusion due to time zone crossing. See the N5352K flight status page for this flight to view local times or setup timezone preferences in your user account.

Time Position Orientation Groundspeed Altitude Reporting Facility
EDT Latitude Longitude Course Direction KTS MPH feet Rate Location/Type
Wed 01:11:31 PM 25.9110 -80.2880 North  Level FlightAware ADS-B
Wed 01:17:05 PM 25.9030 -80.2760 122° Southeast 62 71 200 99 Climbing FlightAware ADS-B
Wed 01:17:35 PM 25.8990 -80.2650 112° Southeast 71 82 600 720 Climbing FlightAware ADS-B
Wed 01:17:55 PM 25.8990 -80.2580 90° East 72 83 800 750 Climbing FlightAware ADS-B
Wed 01:18:15 PM 25.9000 -80.2510 81° East 70 81 1,100 712 Climbing FlightAware ADS-B
Wed 01:18:54 PM 25.9030 -80.2370 77° East 77 89 1,500 638 Climbing FlightAware ADS-B
Wed 01:19:02 PM 25.9040 -80.2340 70° East 72 83 1,600 643 Climbing FlightAware ADS-B
Wed 01:19:22 PM 25.9060 -80.2280 70° East 67 77 1,800 474 Climbing FlightAware ADS-B
Wed 01:19:40 PM 25.9060 -80.2210 90° East 86 99 1,900 167 Climbing FlightAware ADS-B
Wed 01:19:58 PM 25.9070 -80.2140 81° East 79 91 1,900  Level FlightAware ADS-B
Wed 01:20:02 PM 25.9070 -80.2120 90° East 80 92 1,900 500 Level FlightAware ADS-B
Wed 01:20:10 PM 25.9090 -80.2090 53° Northeast 82 94 2,000 375 Climbing FlightAware ADS-B
Wed 01:20:18 PM 25.9120 -80.2080 17° North 89 102 2,000  Level FlightAware ADS-B
Wed 01:20:24 PM 25.9140 -80.2070 24° Northeast 95 109 2,000  Level FlightAware ADS-B
Wed 01:20:47 PM 25.9220 -80.2120 331° Northwest 96 110 2,000  Level FlightAware ADS-B
Wed 01:21:07 PM 25.9280 -80.2220 304° West 100 115 2,000 167 Level FlightAware ADS-B
Wed 01:21:23 PM 25.9310 -80.2290 295° West 96 110 2,100 167 Climbing FlightAware ADS-B
Wed 01:21:43 PM 25.9350 -80.2390 294° West 104 120 2,100  Level FlightAware ADS-B
Wed 01:22:02 PM 25.9400 -80.2460 308° West 110 127 2,100  Level FlightAware ADS-B
Wed 01:22:17 PM 25.9450 -80.2540 305° West 103 119 2,100  Level FlightAware ADS-B
Wed 01:22:22 PM 25.9470 -80.2560 318° Northwest 109 125 2,100  Level FlightAware ADS-B
Wed 01:22:38 PM 25.9530 -80.2620 318° Northwest 107 123 2,100  Level FlightAware ADS-B
Wed 01:22:57 PM 25.9590 -80.2710 307° West 109 125 2,100 -176 Level FlightAware ADS-B
Wed 01:23:12 PM 25.9620 -80.2780 295° West 112 129 2,000 -200 Descending FlightAware ADS-B
Wed 01:23:27 PM 25.9670 -80.2850 308° West 108 124 2,000  Level FlightAware ADS-B
Wed 01:23:48 PM 25.9730 -80.2940 307° West 107 123 2,000  Level FlightAware ADS-B
Wed 01:24:08 PM 25.9790 -80.3030 307° West 106 122 2,000  Level FlightAware ADS-B
Wed 01:24:32 PM 25.9880 -80.3130 315° West 105 121 2,000  Level FlightAware ADS-B
Wed 01:24:47 PM 25.9930 -80.3200 308° West 108 124 2,000  Level FlightAware ADS-B
Wed 01:25:03 PM 25.9990 -80.3240 329° Northwest 108 124 2,000  Level FlightAware ADS-B
Wed 01:25:08 PM 26.0020 -80.3260 329° Northwest 99 114 2,000  Level FlightAware ADS-B
Wed 01:25:19 PM 26.0050 -80.3300 310° West 103 119 2,000  Level FlightAware ADS-B
Wed 01:25:37 PM 26.0100 -80.3390 302° West 106 122 2,000  Level FlightAware ADS-B
Wed 01:25:52 PM 26.0140 -80.3460 302° West 104 120 2,000  Level FlightAware ADS-B
Wed 01:26:08 PM 26.0190 -80.3530 308° West 105 121 2,000  Level FlightAware ADS-B
Wed 01:26:13 PM 26.0200 -80.3550 299° West 103 119 2,000  Level FlightAware ADS-B
Wed 01:26:23 PM 26.0200 -80.3610 270° West 106 122 2,000  Level FlightAware ADS-B
Wed 01:26:43 PM 26.0180 -80.3710 257° West 108 124 2,000  Level FlightAware ADS-B
Wed 01:27:02 PM 26.0170 -80.3810 264° West 109 125 2,000  Level FlightAware ADS-B
Wed 01:27:22 PM 26.0150 -80.3930 259° West 107 123 2,000 -146 Level FlightAware ADS-B
Wed 01:27:43 PM 26.0120 -80.4040 253° West 106 122 1,900 -150 Descending FlightAware ADS-B
Wed 01:28:02 PM 26.0110 -80.4140 264° West 104 120 1,900  Level FlightAware ADS-B
Wed 01:28:22 PM 26.0070 -80.4240 246° West 94 108 1,900  Level FlightAware ADS-B
Wed 01:28:27 PM 26.0060 -80.4260 241° Southwest 95 109 1,900 -375 Level FlightAware ADS-B
Wed 01:28:38 PM 26.0020 -80.4280 204° Southwest 90 104 1,800  Descending FlightAware ADS-B
Wed 01:28:48 PM 25.9990 -80.4290 197° South 80 92 1,900 300 Climbing FlightAware ADS-B
Wed 01:28:58 PM 25.9950 -80.4290 180° South 67 77 1,900  Level FlightAware ADS-B
Wed 01:29:20 PM 25.9880 -80.4260 159° South 77 89 1,900  Level FlightAware ADS-B
Wed 01:29:44 PM 25.9800 -80.4200 146° Southeast 70 81 1,900  Level FlightAware ADS-B
Wed 01:29:59 PM 25.9760 -80.4170 146° Southeast 69 79 1,900  Level FlightAware ADS-B
Wed 01:30:05 PM 25.9760 -80.4150 90° East 72 83 1,900  Level FlightAware ADS-B
Wed 01:30:09 PM 25.9750 -80.4130 119° Southeast 76 87 1,900  Level FlightAware ADS-B
Wed 01:30:29 PM 25.9770 -80.4050 74° East 81 93 1,900  Level FlightAware ADS-B
Wed 01:30:34 PM 25.9780 -80.4030 61° Northeast 81 93 1,900 -240 Level FlightAware ADS-B
Wed 01:30:54 PM 25.9740 -80.3960 122° Southeast 78 90 1,800  Descending FlightAware ADS-B
Wed 01:31:14 PM 25.9680 -80.3910 143° Southeast 71 82 1,900 171 Climbing FlightAware ADS-B
Wed 01:31:29 PM 25.9660 -80.3860 114° Southeast 72 83 1,900  Level FlightAware ADS-B
Wed 01:31:50 PM 25.9620 -80.3800 127° Southeast 69 79 1,900 -267 Level FlightAware ADS-B
Wed 01:32:14 PM 25.9570 -80.3710 122° Southeast 73 84 1,700 -462 Descending FlightAware ADS-B
Wed 01:32:29 PM 25.9540 -80.3660 124° Southeast 77 89 1,600 -450 Descending FlightAware ADS-B
Wed 01:32:54 PM 25.9500 -80.3580 119° Southeast 68 78 1,400 -667 Descending FlightAware ADS-B
Wed 01:33:14 PM 25.9470 -80.3520 119° Southeast 73 84 1,100 -857 Descending FlightAware ADS-B
Wed 01:33:29 PM 25.9450 -80.3470 114° Southeast 72 83 900 -857 Descending FlightAware ADS-B
Wed 01:33:49 PM 25.9410 -80.3400 122° Southeast 77 89 600 -600 Descending FlightAware ADS-B
Wed 01:34:09 PM 25.9360 -80.3350 138° Southeast 58 67 500 -158 Descending FlightAware ADS-B
Wed 01:34:27 PM 25.9330 -80.3310 130° Southeast 60 69 500  Level FlightAware ADS-B
Wed 01:34:38 PM 25.9320 -80.3270 106° East 66 76 500  Level FlightAware ADS-B
Wed 01:34:53 PM 25.9300 -80.3230 119° Southeast 60 69 500  Level FlightAware ADS-B
Wed 01:35:08 PM 25.9270 -80.3180 124° Southeast 64 74 500  Level FlightAware ADS-B
Wed 01:35:22 PM 25.9250 -80.3140 119° Southeast 73 84 500  Level FlightAware ADS-B
Wed 01:35:32 PM 25.9230 -80.3110 127° Southeast 78 90 500  Level FlightAware ADS-B
Wed 01:35:42 PM 25.9210 -80.3080 127° Southeast 72 83 500  Level FlightAware ADS-B
Wed 01:36:03 PM 25.9170 -80.3010 122° Southeast 70 81 500  Level FlightAware ADS-B
Wed 01:36:08 PM 25.9170 -80.2990 90° East 72 83 500  Level FlightAware ADS-B
Wed 01:36:23 PM 25.9140 -80.2960 138° Southeast 78 90 500 194 Level FlightAware ADS-B
Wed 01:36:39 PM 25.9110 -80.2890 115° Southeast 66 76 600  Climbing FlightAware ADS-B
Wed 01:36:44 PM 25.9100 -80.2870 119° Southeast 72 83 500  Descending FlightAware ADS-B
Wed 01:37:04 PM 25.9070 -80.2800 115° Southeast 72 83 600 300 Climbing FlightAware ADS-B
Wed 01:37:24 PM 25.9040 -80.2730 115° Southeast 85 98 700 600 Climbing FlightAware ADS-B
Wed 01:37:44 PM 25.9050 -80.2650 82° East 78 90 1,000 900 Climbing FlightAware ADS-B
Wed 01:38:04 PM 25.9060 -80.2570 82° East 66 76 1,300 833 Climbing FlightAware ADS-B
Wed 01:38:20 PM 25.9070 -80.2520 77° East 69 79 1,500 600 Climbing FlightAware ADS-B
Wed 01:38:34 PM 25.9080 -80.2470 77° East 72 83 1,600 462 Climbing FlightAware ADS-B
Wed 01:38:59 PM 25.9110 -80.2380 70° East 78 90 1,800 600 Climbing FlightAware ADS-B
Wed 01:39:04 PM 25.9110 -80.2360 90° East 74 85 1,900 1,200 Climbing FlightAware ADS-B
Wed 01:39:09 PM 25.9130 -80.2350 24° Northeast 73 84 2,000 600 Climbing FlightAware ADS-B
Wed 01:39:14 PM 25.9140 -80.2340 42° Northeast 85 98 2,000  Level FlightAware ADS-B
Wed 01:39:20 PM 25.9170 -80.2340 360° North 84 97 2,000  Level FlightAware ADS-B
Wed 01:39:46 PM 25.9280 -80.2390 338° Northwest 104 120 2,000  Level FlightAware ADS-B
Wed 01:40:06 PM 25.9360 -80.2450 326° Northwest 110 127 2,000 -136 Level FlightAware ADS-B
Wed 01:40:30 PM 25.9480 -80.2520 332° Northwest 118 136 1,900 -136 Descending FlightAware ADS-B
Wed 01:40:50 PM 25.9560 -80.2580 326° Northwest 108 124 1,900 -214 Level FlightAware ADS-B
Wed 01:40:58 PM 25.9600 -80.2610 326° Northwest 114 131 1,800 -333 Descending FlightAware ADS-B
Wed 01:41:08 PM 25.9640 -80.2640 326° Northwest 104 120 1,800  Level FlightAware ADS-B
Wed 01:41:30 PM 25.9720 -80.2710 322° Northwest 104 120 1,800 133 Level FlightAware ADS-B
Wed 01:41:53 PM 25.9800 -80.2800 315° West 100 115 1,900 140 Climbing FlightAware ADS-B
Wed 01:42:13 PM 25.9880 -80.2860 326° Northwest 103 119 1,900 154 Level FlightAware ADS-B
Wed 01:42:32 PM 25.9940 -80.2940 310° West 99 114 2,000 162 Climbing FlightAware ADS-B
Wed 01:42:50 PM 25.9980 -80.3000 307° West 105 121 2,000  Level FlightAware ADS-B
Wed 01:42:57 PM 25.9990 -80.3060 281° West 107 123 2,000  Level FlightAware ADS-B
Wed 01:43:13 PM 26.0000 -80.3140 278° West 107 123 2,000  Level FlightAware ADS-B
Wed 01:43:23 PM 26.0010 -80.3200 281° West 108 124 2,000  Level FlightAware ADS-B
Wed 01:43:28 PM 26.0020 -80.3220 299° West 113 130 2,000  Level FlightAware ADS-B
Wed 01:43:44 PM 26.0050 -80.3300 293° West 108 124 2,000 250 Level FlightAware ADS-B
Wed 01:43:52 PM 26.0060 -80.3350 283° West 111 128 2,100 333 Climbing FlightAware ADS-B
Wed 01:44:02 PM 26.0080 -80.3400 294° West 105 121 2,100  Level FlightAware ADS-B
Wed 01:44:28 PM 26.0100 -80.3550 278° West 114 131 2,100  Level FlightAware ADS-B
Wed 01:44:33 PM 26.0110 -80.3580 290° West 114 131 2,100  Level FlightAware ADS-B
Wed 01:44:38 PM 26.0120 -80.3610 290° West 110 127 2,100 -207 Level FlightAware ADS-B
Wed 01:45:02 PM 26.0140 -80.3740 280° West 112 129 2,000 -176 Descending FlightAware ADS-B
Wed 01:45:12 PM 26.0150 -80.3800 281° West 107 123 2,000 -194 Level FlightAware ADS-B
Wed 01:45:33 PM 26.0170 -80.3910 281° West 107 123 1,900 -109 Descending FlightAware ADS-B
Wed 01:46:07 PM 26.0080 -80.4050 234° Southwest 89 102 1,900  Level FlightAware ADS-B
Wed 01:46:32 PM 26.0010 -80.4150 232° Southwest 91 105 1,900  Level FlightAware ADS-B
Wed 01:46:43 PM 25.9980 -80.4170 211° Southwest 89 102 1,900  Level FlightAware ADS-B
Wed 01:46:53 PM 25.9940 -80.4180 193° South 69 79 1,900  Level FlightAware ADS-B
Wed 01:47:13 PM 25.9870 -80.4150 159° South 78 90 1,900  Level FlightAware ADS-B
Wed 01:47:41 PM 25.9780 -80.4090 149° Southeast 75 86 1,900 -250 Level FlightAware ADS-B
Wed 01:48:01 PM 25.9710 -80.4050 153° Southeast 70 81 1,700 -343 Descending FlightAware ADS-B
Wed 01:48:16 PM 25.9670 -80.4030 156° South 62 71 1,700  Level FlightAware ADS-B
Wed 01:48:26 PM 25.9650 -80.4010 138° Southeast 68 78 1,700  Level FlightAware ADS-B
Wed 01:48:31 PM 25.9640 -80.3990 119° Southeast 66 76 1,700 -600 Level FlightAware ADS-B
Wed 01:48:36 PM 25.9640 -80.3970 90° East 69 79 1,600 -286 Descending FlightAware ADS-B
Wed 01:48:52 PM 25.9640 -80.3920 90° East 70 81 1,600  Level FlightAware ADS-B
Wed 01:49:12 PM 25.9630 -80.3840 98° East 74 85 1,600  Level FlightAware ADS-B
Wed 01:49:21 PM 25.9610 -80.3810 127° Southeast 66 76 1,600  Level FlightAware ADS-B
Wed 01:49:31 PM 25.9590 -80.3790 138° Southeast 71 82 1,600  Level FlightAware ADS-B
Wed 01:49:41 PM 25.9570 -80.3760 127° Southeast 66 76 1,600  Level FlightAware ADS-B
Wed 01:50:01 PM 25.9530 -80.3700 127° Southeast 68 78 1,600 150 Level FlightAware ADS-B
Wed 01:50:21 PM 25.9490 -80.3650 132° Southeast 52 60 1,700 -200 Climbing FlightAware ADS-B
Wed 01:50:31 PM 25.9490 -80.3620 90° East 63 72 1,500 -720 Descending FlightAware ADS-B
Wed 01:50:46 PM 25.9480 -80.3570 103° East 67 77 1,400 -462 Descending FlightAware ADS-B
Wed 01:50:57 PM 25.9480 -80.3530 90° East 70 81 1,300 -571 Descending FlightAware ADS-B
Wed 01:51:07 PM 25.9460 -80.3490 119° Southeast 72 83 1,200 -581 Descending FlightAware ADS-B
Wed 01:51:28 PM 25.9420 -80.3430 127° Southeast 70 81 1,000 -439 Descending FlightAware ADS-B
Wed 01:51:48 PM 25.9380 -80.3380 132° Southeast 64 74 900 -300 Descending FlightAware ADS-B
Wed 01:52:08 PM 25.9350 -80.3320 119° Southeast 61 70 800 -409 Descending FlightAware ADS-B
Wed 01:52:32 PM 25.9300 -80.3260 133° Southeast 64 74 600 -450 Descending FlightAware ADS-B
Wed 01:52:48 PM 25.9280 -80.3210 114° Southeast 69 79 500 -286 Descending FlightAware ADS-B
Wed 01:52:53 PM 25.9270 -80.3190 119° Southeast 63 72 500 -400 Level FlightAware ADS-B
Wed 01:53:18 PM 25.9240 -80.3110 113° Southeast 61 70 300 -409 Descending FlightAware ADS-B
Wed 01:53:37 PM 25.9220 -80.3060 114° Southeast 66 76 200 -150 Descending FlightAware ADS-B
Wed 01:53:58 PM 25.9170 -80.3000 133° Southeast 60 69 200  Level FlightAware ADS-B

Login

Don't have an account? Register now (free) for customized features, flight alerts, and more!